createdAt,value
2023-01-11T00:00:36.797Z,-1.30
2023-01-11T00:03:05.260Z,-1.30
2023-01-11T00:05:32.374Z,-1.30
2023-01-11T00:07:59.251Z,-1.30
2023-01-11T00:10:26.130Z,-1.30
2023-01-11T00:12:52.979Z,-1.40
2023-01-11T00:15:19.878Z,-1.40
2023-01-11T00:17:46.890Z,-1.40
2023-01-11T00:20:13.858Z,-1.40
2023-01-11T00:22:40.734Z,-1.40
2023-01-11T00:25:07.963Z,-1.50
2023-01-11T00:27:34.921Z,-1.50
2023-01-11T00:30:01.962Z,-1.40
2023-01-11T00:32:29.010Z,-1.50
2023-01-11T00:34:55.928Z,-1.40
2023-01-11T00:37:22.824Z,-1.50
2023-01-11T00:39:49.723Z,-1.50
2023-01-11T00:42:35.048Z,-1.50
2023-01-11T00:45:20.513Z,-1.50
2023-01-11T00:48:01.030Z,-1.50
2023-01-11T00:50:31.609Z,-1.50
2023-01-11T00:52:59.670Z,-1.50
2023-01-11T00:55:27.141Z,-1.50
2023-01-11T00:57:54.347Z,-1.50
2023-01-11T01:00:22.248Z,-1.40
2023-01-11T01:02:50.228Z,-1.40
2023-01-11T01:05:18.105Z,-1.40
2023-01-11T01:07:45.748Z,-1.50
2023-01-11T01:10:14.526Z,-1.50
2023-01-11T01:13:16.729Z,-1.50
2023-01-11T01:15:43.625Z,-1.50
2023-01-11T01:18:10.624Z,-1.50
2023-01-11T01:20:37.522Z,-1.50
2023-01-11T01:23:05.374Z,-1.50
2023-01-11T01:25:32.293Z,-1.50
2023-01-11T01:27:59.167Z,-1.60
2023-01-11T01:30:26.088Z,-1.60
2023-01-11T01:32:52.991Z,-1.60
2023-01-11T01:35:19.877Z,-1.70
2023-01-11T01:37:46.760Z,-1.60
2023-01-11T01:40:13.959Z,-1.70
2023-01-11T01:42:40.924Z,-1.70
2023-01-11T01:45:23.201Z,-1.60
2023-01-11T01:48:03.869Z,-1.70
2023-01-11T01:50:39.242Z,-1.70
2023-01-11T01:53:13.251Z,-1.70
2023-01-11T01:55:45.213Z,-1.70
2023-01-11T01:58:16.406Z,-1.80
2023-01-11T02:00:45.679Z,-1.80
2023-01-11T02:03:19.177Z,-1.80
2023-01-11T02:05:46.863Z,-1.80
2023-01-11T02:08:41.783Z,-1.80
2023-01-11T02:11:29.969Z,-1.80
2023-01-11T02:14:03.179Z,-1.70
2023-01-11T02:16:30.380Z,-1.80
2023-01-11T02:18:58.404Z,-1.80
2023-01-11T02:21:52.980Z,-1.70
2023-01-11T02:24:42.855Z,-1.70
2023-01-11T02:27:09.574Z,-1.70
2023-01-11T02:29:50.287Z,-1.70
2023-01-11T02:32:22.945Z,-1.70
2023-01-11T02:35:18.533Z,-1.70
2023-01-11T02:37:58.072Z,-1.70
2023-01-11T02:40:30.508Z,-1.80
2023-01-11T02:43:24.047Z,-1.80
2023-01-11T02:45:57.033Z,-1.70
2023-01-11T02:48:46.350Z,-1.70
2023-01-11T02:51:20.321Z,-1.80
2023-01-11T02:54:01.338Z,-1.70
2023-01-11T02:56:32.642Z,-1.80
2023-01-11T02:59:01.096Z,-1.80
2023-01-11T03:01:28.117Z,-1.80
2023-01-11T03:03:56.182Z,-1.80
2023-01-11T03:06:31.795Z,-1.70
2023-01-11T03:09:10.431Z,-1.80
2023-01-11T03:12:14.634Z,-1.80
2023-01-11T03:15:08.201Z,-1.70
2023-01-11T03:17:56.565Z,-1.80
2023-01-11T03:20:31.474Z,-1.70
2023-01-11T03:22:58.310Z,-1.80
2023-01-11T03:25:50.856Z,-1.80
2023-01-11T03:28:23.310Z,-1.80
2023-01-11T03:31:00.474Z,-1.80
2023-01-11T03:33:44.335Z,-1.80
2023-01-11T03:36:18.551Z,-1.80
2023-01-11T03:39:09.395Z,-1.90
2023-01-11T03:41:38.925Z,-1.80
2023-01-11T03:44:08.027Z,-1.80
2023-01-11T03:46:43.634Z,-1.80
2023-01-11T03:49:30.715Z,-1.80
2023-01-11T03:52:00.671Z,-1.80
2023-01-11T03:54:28.796Z,-1.80
2023-01-11T03:57:10.646Z,-1.80
2023-01-11T03:59:39.658Z,-1.80
2023-01-11T04:02:16.579Z,-1.80
2023-01-11T04:04:43.504Z,-1.80
2023-01-11T04:07:10.438Z,-1.80
2023-01-11T04:09:38.344Z,-1.70
2023-01-11T04:12:05.500Z,-1.80
2023-01-11T04:14:32.506Z,-1.70
2023-01-11T04:16:59.429Z,-1.70
2023-01-11T04:19:26.344Z,-1.80
2023-01-11T04:21:53.222Z,-1.80
2023-01-11T04:24:20.477Z,-1.80
2023-01-11T04:26:47.519Z,-1.80
2023-01-11T04:29:14.782Z,-1.80
2023-01-11T04:31:41.790Z,-1.80
2023-01-11T04:34:08.811Z,-1.80
2023-01-11T04:36:35.746Z,-1.80
2023-01-11T04:39:02.620Z,-1.80
2023-01-11T04:41:47.841Z,-1.80
2023-01-11T04:44:14.812Z,-1.80
2023-01-11T04:46:41.715Z,-1.80
2023-01-11T04:49:08.590Z,-1.80
2023-01-11T04:51:35.461Z,-1.90
2023-01-11T04:54:02.333Z,-1.80
2023-01-11T04:56:29.650Z,-1.90
2023-01-11T04:58:56.785Z,-1.80
2023-01-11T05:01:23.748Z,-1.80
2023-01-11T05:03:51.358Z,-1.80
2023-01-11T05:06:26.427Z,-1.90
2023-01-11T05:08:53.385Z,-1.90
2023-01-11T05:11:20.208Z,-1.90
2023-01-11T05:13:47.145Z,-1.90
2023-01-11T05:16:18.302Z,-1.80
2023-01-11T05:18:56.811Z,-1.80
2023-01-11T05:21:31.324Z,-1.90
2023-01-11T05:24:03.440Z,-1.80
2023-01-11T05:26:34.715Z,-1.80
2023-01-11T05:29:04.439Z,-1.80
2023-01-11T05:31:32.248Z,-1.80
2023-01-11T05:33:59.283Z,-1.80
2023-01-11T05:36:27.950Z,-1.80
2023-01-11T05:38:56.959Z,-1.80
2023-01-11T05:41:27.332Z,-1.80
2023-01-11T05:44:13.768Z,-1.80
2023-01-11T05:46:43.032Z,-1.80
2023-01-11T05:49:11.499Z,-1.80
2023-01-11T05:51:38.777Z,-1.80
2023-01-11T05:54:09.594Z,-1.80
2023-01-11T05:56:36.588Z,-1.80
2023-01-11T05:59:04.176Z,-1.80
2023-01-11T06:01:31.779Z,-1.80
2023-01-11T06:03:58.763Z,-1.80
2023-01-11T06:06:25.773Z,-1.80
2023-01-11T06:08:52.816Z,-1.80
2023-01-11T06:11:20.017Z,-1.80
2023-01-11T06:13:47.016Z,-1.80
2023-01-11T06:16:19.992Z,-1.80
2023-01-11T06:18:49.140Z,-1.80
2023-01-11T06:21:17.570Z,-1.80
2023-01-11T06:23:46.961Z,-1.80
2023-01-11T06:26:16.664Z,-1.70
2023-01-11T06:28:44.395Z,-1.80
2023-01-11T06:31:12.493Z,-1.80
2023-01-11T06:33:39.607Z,-1.80
2023-01-11T06:36:09.294Z,-1.80
2023-01-11T06:38:36.983Z,-1.80
2023-01-11T06:41:06.041Z,-1.80
2023-01-11T06:43:33.075Z,-1.80
2023-01-11T06:46:00.281Z,-1.80
2023-01-11T06:48:28.109Z,-1.80
2023-01-11T06:50:57.112Z,-1.80
2023-01-11T06:53:28.135Z,-1.80
2023-01-11T06:55:57.633Z,-1.80
2023-01-11T06:58:25.731Z,-1.80
2023-01-11T07:00:54.455Z,-1.70
2023-01-11T07:03:24.207Z,-1.70
2023-01-11T07:05:52.728Z,-1.70
2023-01-11T07:08:19.807Z,-1.70
2023-01-11T07:10:47.159Z,-1.80
2023-01-11T07:13:18.006Z,-1.70
2023-01-11T07:15:48.440Z,-1.70
2023-01-11T07:18:15.728Z,-1.70
2023-01-11T07:20:42.823Z,-1.70
2023-01-11T07:23:10.883Z,-1.60
2023-01-11T07:25:37.854Z,-1.60
2023-01-11T07:28:06.889Z,-1.60
2023-01-11T07:30:47.929Z,-1.60
2023-01-11T07:33:22.931Z,-1.60
2023-01-11T07:35:49.976Z,-1.50
2023-01-11T07:38:17.145Z,-1.50
2023-01-11T07:40:44.235Z,-1.50
2023-01-11T07:43:15.699Z,-1.40
2023-01-11T07:45:46.893Z,-1.40
2023-01-11T07:48:16.071Z,-1.40
2023-01-11T07:50:45.094Z,-1.40
2023-01-11T07:53:13.002Z,-1.40
2023-01-11T07:55:40.852Z,-1.40
2023-01-11T07:58:11.263Z,-1.30
2023-01-11T08:00:38.797Z,-1.40
2023-01-11T08:03:05.798Z,-1.40
2023-01-11T08:05:32.879Z,-1.40
2023-01-11T08:07:59.806Z,-1.30
2023-01-11T08:10:26.667Z,-1.30
2023-01-11T08:13:12.340Z,-1.20
2023-01-11T08:15:42.632Z,-1.20
2023-01-11T08:18:11.841Z,-1.10
2023-01-11T08:20:39.915Z,-1.10
2023-01-11T08:23:09.207Z,-1.10
2023-01-11T08:25:36.379Z,-1.10
2023-01-11T08:28:05.729Z,-1.10
2023-01-11T08:30:33.270Z,-1.00
2023-01-11T08:33:04.348Z,-1.10
2023-01-11T08:35:36.628Z,-1.10
2023-01-11T08:38:03.567Z,-1.00
2023-01-11T08:40:30.456Z,-1.00
2023-01-11T08:42:57.903Z,-1.00
2023-01-11T08:45:25.833Z,-0.90
2023-01-11T08:47:53.390Z,-0.90
2023-01-11T08:50:22.304Z,-0.90
2023-01-11T08:52:51.337Z,-0.80
2023-01-11T08:55:19.214Z,-0.80
2023-01-11T08:57:46.319Z,-0.90
2023-01-11T09:00:14.055Z,-0.80
2023-01-11T09:02:41.203Z,-0.80
2023-01-11T09:05:08.499Z,-0.70
2023-01-11T09:07:35.435Z,-0.70
2023-01-11T09:10:02.419Z,-0.60
2023-01-11T09:12:29.407Z,-0.60
2023-01-11T09:14:56.361Z,-0.60
2023-01-11T09:17:23.257Z,-0.60
2023-01-11T09:19:50.235Z,-0.70
2023-01-11T09:22:17.332Z,-0.70
2023-01-11T09:24:44.261Z,-0.60
2023-01-11T09:27:14.067Z,-0.60
2023-01-11T09:29:41.136Z,-0.50
2023-01-11T09:32:08.082Z,-0.50
2023-01-11T09:34:35.148Z,-0.40
2023-01-11T09:37:04.659Z,-0.50
2023-01-11T09:39:31.721Z,-0.50
2023-01-11T09:42:35.029Z,-0.40
2023-01-11T09:45:17.559Z,-0.40
2023-01-11T09:48:19.679Z,-0.40
2023-01-11T09:50:48.709Z,-0.40
2023-01-11T09:53:27.270Z,-0.40
2023-01-11T09:55:58.240Z,-0.40
2023-01-11T09:58:34.803Z,-0.40
2023-01-11T10:01:19.769Z,-0.30
2023-01-11T10:04:18.064Z,-0.40
2023-01-11T10:07:07.258Z,-0.40
2023-01-11T10:18:39.949Z,-0.40
2023-01-11T10:19:35.865Z,-0.40
2023-01-11T10:22:40.606Z,-0.40
2023-01-11T10:25:18.879Z,-0.40
2023-01-11T10:28:01.998Z,-0.30
2023-01-11T10:31:06.037Z,-0.30
2023-01-11T10:34:02.569Z,-0.30
2023-01-11T10:37:00.865Z,-0.30
2023-01-11T10:40:06.374Z,-0.30
2023-01-11T10:42:44.218Z,-0.30
2023-01-11T10:45:33.175Z,-0.30
2023-01-11T10:48:12.513Z,-0.30
2023-01-11T10:51:06.062Z,-0.30
2023-01-11T10:53:43.581Z,-0.30
2023-01-11T10:56:13.588Z,-0.20
2023-01-11T10:59:15.685Z,-0.30
2023-01-11T11:01:55.986Z,-0.30
2023-01-11T11:04:25.764Z,-0.20
2023-01-11T11:07:01.813Z,-0.20
2023-01-11T11:09:41.082Z,-0.20
2023-01-11T11:12:24.719Z,-0.30
2023-01-11T11:15:13.678Z,-0.30
2023-01-11T11:17:46.214Z,-0.30
2023-01-11T11:20:17.369Z,-0.30
2023-01-11T11:22:47.272Z,-0.30
2023-01-11T11:25:32.670Z,-0.20
2023-01-11T11:28:05.989Z,-0.20
2023-01-11T11:30:44.211Z,-0.20
2023-01-11T11:33:24.507Z,-0.20
2023-01-11T11:36:04.674Z,-0.10
2023-01-11T11:38:39.995Z,-0.10
2023-01-11T11:41:17.046Z,-0.10
2023-01-11T11:43:46.516Z,-0.20
2023-01-11T11:46:20.015Z,-0.20
2023-01-11T11:49:16.322Z,-0.10
2023-01-11T11:51:45.728Z,-0.10
2023-01-11T11:54:32.356Z,-0.10
2023-01-11T11:57:13.021Z,-0.10
2023-01-11T11:59:45.385Z,-0.20
2023-01-11T12:02:27.429Z,-0.10
2023-01-11T12:04:57.558Z,-0.10
2023-01-11T12:07:29.396Z,-0.10
2023-01-11T12:10:00.910Z,-0.20
2023-01-11T12:12:29.667Z,-0.20
2023-01-11T12:15:15.338Z,-0.10
2023-01-11T12:17:43.007Z,-0.20
2023-01-11T12:20:22.096Z,-0.20
2023-01-11T12:22:50.244Z,-0.20
2023-01-11T12:25:28.894Z,-0.30
2023-01-11T12:28:01.655Z,-0.30
2023-01-11T12:30:37.799Z,-0.40
2023-01-11T12:33:13.931Z,-0.40
2023-01-11T12:35:43.868Z,-0.30
2023-01-11T12:38:16.260Z,-0.30
2023-01-11T12:40:55.099Z,-0.30
2023-01-11T12:43:45.331Z,-0.40
2023-01-11T12:46:22.171Z,-0.40
2023-01-11T12:49:01.308Z,-0.40
2023-01-11T12:51:57.718Z,-0.40
2023-01-11T12:54:52.632Z,-0.50
2023-01-11T12:58:01.524Z,-0.50
2023-01-11T13:00:52.365Z,-0.50
2023-01-11T13:03:48.855Z,-0.50
2023-01-11T13:06:34.228Z,-0.60
2023-01-11T13:09:11.742Z,-0.70
2023-01-11T13:12:02.811Z,-0.70
2023-01-11T13:14:40.582Z,-0.80
2023-01-11T13:17:31.783Z,-0.80
2023-01-11T13:20:17.181Z,-0.80
2023-01-11T13:22:50.340Z,-0.80
2023-01-11T13:25:29.990Z,-0.80
2023-01-11T13:27:59.251Z,-0.90
2023-01-11T13:30:26.671Z,-0.80
2023-01-11T13:33:04.057Z,-0.90
2023-01-11T13:35:42.347Z,-0.90
2023-01-11T13:38:31.551Z,-0.90
2023-01-11T13:41:17.280Z,-0.90
2023-01-11T13:43:46.416Z,-0.90
2023-01-11T13:46:31.814Z,-0.80
2023-01-11T13:49:36.129Z,-0.90
2023-01-11T13:52:15.697Z,-0.90
2023-01-11T13:54:53.465Z,-0.90
2023-01-11T13:57:32.735Z,-0.90
2023-01-11T14:00:14.983Z,-0.90
2023-01-11T14:02:51.846Z,-1.00
2023-01-11T14:05:21.486Z,-1.00
2023-01-11T14:08:00.970Z,-1.00
2023-01-11T14:10:47.121Z,-1.00
2023-01-11T14:13:58.703Z,-1.00
2023-01-11T14:16:51.674Z,-1.00
2023-01-11T14:19:30.634Z,-1.00
2023-01-11T14:22:04.574Z,-1.00
2023-01-11T14:24:36.081Z,-1.00
2023-01-11T14:27:22.465Z,-1.10
2023-01-11T14:30:10.509Z,-1.10
2023-01-11T14:32:40.440Z,-1.10
2023-01-11T14:35:16.017Z,-1.10
2023-01-11T14:37:57.872Z,-1.10
2023-01-11T14:40:46.259Z,-1.10
2023-01-11T14:43:19.089Z,-1.10
2023-01-11T14:46:11.123Z,-1.20
2023-01-11T14:48:52.726Z,-1.20
2023-01-11T14:51:37.782Z,-1.20
2023-01-11T14:54:15.178Z,-1.20
2023-01-11T14:56:45.236Z,-1.20
2023-01-11T14:59:30.690Z,-1.20
2023-01-11T15:02:03.775Z,-1.20
2023-01-11T15:04:39.675Z,-1.20
2023-01-11T15:07:30.657Z,-1.20
2023-01-11T15:10:28.495Z,-1.20
2023-01-11T15:12:57.794Z,-1.20
2023-01-11T15:15:52.049Z,-1.20
2023-01-11T15:18:22.651Z,-1.20
2023-01-11T15:21:14.407Z,-1.30
2023-01-11T15:23:54.577Z,-1.30
2023-01-11T15:26:23.561Z,-1.30
2023-01-11T15:28:59.434Z,-1.40
2023-01-11T15:31:57.880Z,-1.30
2023-01-11T15:34:26.990Z,-1.30
2023-01-11T15:37:03.976Z,-1.20
2023-01-11T15:39:46.514Z,-1.30
2023-01-11T15:42:17.124Z,-1.30
2023-01-11T15:45:27.952Z,-1.30
2023-01-11T15:48:30.960Z,-1.20
2023-01-11T15:51:03.624Z,-1.30
2023-01-11T15:53:58.002Z,-1.30
2023-01-11T15:56:29.226Z,-1.20
2023-01-11T15:59:11.283Z,-1.20
2023-01-11T16:02:16.612Z,-1.20
2023-01-11T16:04:58.969Z,-1.20
2023-01-11T16:07:56.777Z,-1.20
2023-01-11T16:10:42.301Z,-1.20
2023-01-11T16:13:19.939Z,-1.20
2023-01-11T16:15:52.692Z,-1.20
2023-01-11T16:18:25.360Z,-1.20
2023-01-11T16:21:00.431Z,-1.30
2023-01-11T16:23:31.761Z,-1.30
2023-01-11T16:26:01.580Z,-1.20
2023-01-11T16:28:28.942Z,-1.20
2023-01-11T16:31:02.475Z,-1.30
2023-01-11T16:33:32.466Z,-1.30
2023-01-11T16:36:06.648Z,-1.30
2023-01-11T16:39:03.594Z,-1.30
2023-01-11T16:41:58.609Z,-1.30
2023-01-11T16:44:34.287Z,-1.40
2023-01-11T16:47:07.340Z,-1.30
2023-01-11T16:49:34.618Z,-1.30
2023-01-11T16:52:26.534Z,-1.30
2023-01-11T16:55:00.866Z,-1.30
2023-01-11T16:57:35.946Z,-1.20
2023-01-11T17:00:07.202Z,-1.30
2023-01-11T17:02:42.819Z,-1.20
2023-01-11T17:05:22.651Z,-1.30
2023-01-11T17:07:50.024Z,-1.30
2023-01-11T17:10:23.423Z,-1.20
2023-01-11T17:13:48.173Z,-1.30
2023-01-11T17:16:19.863Z,-1.30
2023-01-11T17:18:48.331Z,-1.30
2023-01-11T17:21:24.604Z,-1.30
2023-01-11T17:23:57.797Z,-1.30
2023-01-11T17:26:41.917Z,-1.30
2023-01-11T17:29:09.246Z,-1.30
2023-01-11T17:31:41.142Z,-1.30
2023-01-11T17:34:18.938Z,-1.30
2023-01-11T17:36:48.274Z,-1.30
2023-01-11T17:39:34.490Z,-1.30
2023-01-11T17:42:24.425Z,-1.30
2023-01-11T17:45:10.587Z,-1.30
2023-01-11T17:47:41.027Z,-1.30
2023-01-11T17:50:32.596Z,-1.30
2023-01-11T17:53:05.646Z,-1.30
2023-01-11T17:55:33.643Z,-1.30
2023-01-11T17:58:18.976Z,-1.30
2023-01-11T18:01:13.957Z,-1.30
2023-01-11T18:03:52.975Z,-1.30
2023-01-11T18:06:36.474Z,-1.30
2023-01-11T18:09:06.529Z,-1.30
2023-01-11T18:11:37.105Z,-1.30
2023-01-11T18:14:07.828Z,-1.30
2023-01-11T18:16:36.733Z,-1.30
2023-01-11T18:19:24.335Z,-1.40
2023-01-11T18:21:54.428Z,-1.30
2023-01-11T18:24:24.176Z,-1.30
2023-01-11T18:27:07.776Z,-1.30
2023-01-11T18:29:39.157Z,-1.30
2023-01-11T18:32:08.758Z,-1.30
2023-01-11T18:34:36.121Z,-1.40
2023-01-11T18:37:06.588Z,-1.40
2023-01-11T18:39:34.407Z,-1.40
2023-01-11T18:42:09.971Z,-1.40
2023-01-11T18:44:43.148Z,-1.30
2023-01-11T18:47:17.405Z,-1.30
2023-01-11T18:49:46.562Z,-1.30
2023-01-11T18:52:13.922Z,-1.30
2023-01-11T18:54:41.869Z,-1.30
2023-01-11T18:57:09.641Z,-1.30
2023-01-11T18:59:36.900Z,-1.30
2023-01-11T19:02:17.107Z,-1.30
2023-01-11T19:04:44.845Z,-1.30
2023-01-11T19:07:13.022Z,-1.30
2023-01-11T19:09:40.270Z,-1.40
2023-01-11T19:12:08.053Z,-1.30
2023-01-11T19:14:35.239Z,-1.40
2023-01-11T19:17:06.871Z,-1.40
2023-01-11T19:19:34.144Z,-1.40
2023-01-11T19:22:01.151Z,-1.40
2023-01-11T19:24:28.195Z,-1.30
2023-01-11T19:26:56.184Z,-1.40
2023-01-11T19:29:24.799Z,-1.40
2023-01-11T19:31:52.805Z,-1.40
2023-01-11T19:34:20.278Z,-1.30
2023-01-11T19:36:48.518Z,-1.40
2023-01-11T19:39:15.796Z,-1.30
2023-01-11T19:41:57.777Z,-1.30
2023-01-11T19:44:31.177Z,-1.30
2023-01-11T19:47:11.012Z,-1.30
2023-01-11T19:49:43.172Z,-1.30
2023-01-11T19:52:19.113Z,-1.30
2023-01-11T19:54:46.918Z,-1.30
2023-01-11T19:57:18.082Z,-1.30
2023-01-11T19:59:45.559Z,-1.30
2023-01-11T20:02:15.759Z,-1.30
2023-01-11T20:04:44.178Z,-1.30
2023-01-11T20:07:12.440Z,-1.30
2023-01-11T20:09:39.844Z,-1.30
2023-01-11T20:12:10.118Z,-1.30
2023-01-11T20:14:39.567Z,-1.30
2023-01-11T20:17:08.052Z,-1.30
2023-01-11T20:19:37.245Z,-1.30
2023-01-11T20:22:04.554Z,-1.30
2023-01-11T20:24:32.174Z,-1.30
2023-01-11T20:27:01.594Z,-1.30
2023-01-11T20:29:30.684Z,-1.20
2023-01-11T20:32:13.438Z,-1.20
2023-01-11T20:34:45.320Z,-1.20
2023-01-11T20:37:12.291Z,-1.30
2023-01-11T20:39:39.225Z,-1.20
2023-01-11T20:42:06.144Z,-1.30
2023-01-11T20:44:33.059Z,-1.20
2023-01-11T20:47:01.564Z,-1.20
2023-01-11T20:49:31.585Z,-1.20
2023-01-11T20:51:58.897Z,-1.30
2023-01-11T20:54:26.297Z,-1.30
2023-01-11T20:56:53.638Z,-1.40
2023-01-11T20:59:21.096Z,-1.30
2023-01-11T21:01:50.276Z,-1.40
2023-01-11T21:04:18.478Z,-1.40
2023-01-11T21:06:48.392Z,-1.40
2023-01-11T21:09:16.291Z,-1.40
2023-01-11T21:11:44.348Z,-1.40
2023-01-11T21:14:14.450Z,-1.40
2023-01-11T21:16:44.382Z,-1.40
2023-01-11T21:19:11.730Z,-1.50
2023-01-11T21:21:38.860Z,-1.50
2023-01-11T21:24:06.376Z,-1.50
2023-01-11T21:26:34.842Z,-1.50
2023-01-11T21:29:04.235Z,-1.50
2023-01-11T21:31:33.260Z,-1.50
2023-01-11T21:34:00.670Z,-1.50
2023-01-11T21:36:30.371Z,-1.40
2023-01-11T21:38:58.933Z,-1.50
2023-01-11T21:41:46.891Z,-1.50
2023-01-11T21:44:14.496Z,-1.50
2023-01-11T21:46:41.846Z,-1.50
2023-01-11T21:49:09.350Z,-1.60
2023-01-11T21:51:37.958Z,-1.60
2023-01-11T21:54:10.750Z,-1.60
2023-01-11T21:56:38.100Z,-1.60
2023-01-11T21:59:05.267Z,-1.60
2023-01-11T22:01:32.246Z,-1.70
2023-01-11T22:03:59.666Z,-1.70
2023-01-11T22:06:26.704Z,-1.60
2023-01-11T22:08:53.768Z,-1.60
2023-01-11T22:11:20.795Z,-1.60
2023-01-11T22:13:47.752Z,-1.70
2023-01-11T22:16:17.587Z,-1.70
2023-01-11T22:18:44.903Z,-1.70
2023-01-11T22:21:18.099Z,-1.70
2023-01-11T22:23:47.246Z,-1.70
2023-01-11T22:26:16.667Z,-1.70
2023-01-11T22:29:02.818Z,-1.70
2023-01-11T22:31:31.202Z,-1.70
2023-01-11T22:33:58.877Z,-1.70
2023-01-11T22:36:26.832Z,-1.80
2023-01-11T22:38:54.582Z,-1.80
2023-01-11T22:41:22.196Z,-1.80
2023-01-11T22:43:49.747Z,-1.70
2023-01-11T22:46:19.393Z,-1.80
2023-01-11T22:48:49.807Z,-1.70
2023-01-11T22:51:19.416Z,-1.80
2023-01-11T22:53:48.864Z,-1.70
2023-01-11T22:56:20.777Z,-1.70
2023-01-11T22:58:48.375Z,-1.70
2023-01-11T23:01:21.747Z,-1.70
2023-01-11T23:03:49.466Z,-1.70
2023-01-11T23:06:24.965Z,-1.70
2023-01-11T23:08:53.254Z,-1.70
2023-01-11T23:11:51.085Z,-1.70
2023-01-11T23:14:19.363Z,-1.80
2023-01-11T23:16:47.794Z,-1.80
2023-01-11T23:19:16.636Z,-1.80
2023-01-11T23:21:45.351Z,-1.80
2023-01-11T23:24:14.054Z,-1.70
2023-01-11T23:26:41.440Z,-1.80
2023-01-11T23:29:08.455Z,-1.80
2023-01-11T23:31:35.623Z,-1.80
2023-01-11T23:34:03.989Z,-1.80
2023-01-11T23:36:33.722Z,-1.80
2023-01-11T23:39:00.971Z,-1.80
2023-01-11T23:41:46.792Z,-1.80
2023-01-11T23:44:15.597Z,-1.90
2023-01-11T23:47:01.684Z,-1.90
2023-01-11T23:49:29.586Z,-2.00
2023-01-11T23:51:57.123Z,-2.00
2023-01-11T23:54:27.570Z,-2.00
2023-01-11T23:56:55.188Z,-2.00
2023-01-11T23:59:22.260Z,-2.00
